Time;durP1;ratioP1;P1;durP2;ratioP2;P2;SDS_P1;SDS_P2;PMS_P1;PMS_P2;Temp;Humidity;BMP_temperature;BMP_pressure;BME280_temperature;BME280_humidity;BME280_pressure;Samples;Min_cycle;Max_cycle;Signal;HPM_P1;HPM_P2
2022/04/11 00:00:50;;;;;;;0.82;0.82;;;;;;;8.70;75.95;97578.13;4948800;29;20719;-65
2022/04/11 00:03:16;;;;;;;0.90;0.90;;;;;;;8.78;74.78;97572.34;4936888;28;20201;-65
2022/04/11 00:05:41;;;;;;;1.10;1.10;;;;;;;8.79;75.33;97598.03;4939258;29;20530;-65
2022/04/11 00:08:07;;;;;;;0.90;0.90;;;;;;;8.70;74.45;97577.28;4945182;29;20276;-65
2022/04/11 00:10:33;;;;;;;1.00;1.00;;;;;;;8.60;74.89;97582.28;4948437;29;20213;-65
2022/04/11 00:13:06;;;;;;;0.90;0.90;;;;;;;8.57;76.69;97587.66;4948675;29;20220;-65
2022/04/11 00:15:33;;;;;;;1.10;1.10;;;;;;;8.53;75.60;97590.59;4949012;29;20189;-65
2022/04/11 00:18:00;;;;;;;1.08;1.08;;;;;;;8.58;75.34;97588.50;4948768;29;20675;-66
2022/04/11 00:20:26;;;;;;;0.98;0.98;;;;;;;8.56;76.57;97593.75;4948884;29;20561;-67
2022/04/11 00:22:51;;;;;;;1.67;1.27;;;;;;;8.58;76.20;97601.38;4943702;29;20200;-65
2022/04/11 00:25:17;;;;;;;0.93;0.93;;;;;;;8.58;76.24;97594.50;4937725;29;20191;-66
2022/04/11 00:27:42;;;;;;;1.00;1.00;;;;;;;8.48;76.71;97605.56;4940045;29;20181;-66
2022/04/11 00:30:08;;;;;;;1.13;1.13;;;;;;;8.43;76.58;97599.91;4947996;29;20630;-66
2022/04/11 00:32:41;;;;;;;1.33;1.10;;;;;;;8.46;77.87;97615.97;4948605;29;20197;-67
2022/04/11 00:35:08;;;;;;;1.23;1.13;;;;;;;8.37;78.65;97621.81;4948533;29;20669;-66
2022/04/11 00:37:34;;;;;;;2.03;1.20;;;;;;;8.38;78.46;97612.34;4948802;29;20738;-65
2022/04/11 00:39:59;;;;;;;1.00;1.00;;;;;;;8.44;77.58;97623.00;4948358;29;20295;-66
2022/04/11 00:42:28;;;;;;;1.10;1.10;;;;;;;8.42;78.49;97624.88;4948769;29;20181;-66
2022/04/11 00:44:53;;;;;;;0.98;0.98;;;;;;;8.34;78.79;97627.19;4938801;29;20627;-66
2022/04/11 00:47:19;;;;;;;1.10;1.10;;;;;;;8.39;78.44;97642.34;4938366;29;20232;-66
2022/04/11 00:49:44;;;;;;;1.75;0.90;;;;;;;8.23;78.58;97639.19;4942922;29;20189;-65
2022/04/11 00:52:10;;;;;;;1.05;1.05;;;;;;;8.13;79.19;97628.69;4948418;29;20196;-66
2022/04/11 00:54:37;;;;;;;1.20;1.10;;;;;;;8.13;80.90;97645.91;4948139;29;20189;-66
2022/04/11 00:57:04;;;;;;;1.00;1.00;;;;;;;8.04;79.23;97631.91;4948103;29;20185;-66
2022/04/11 00:59:30;;;;;;;1.00;1.00;;;;;;;8.11;79.63;97646.00;4930677;29;20621;-66
2022/04/11 01:01:55;;;;;;;2.05;0.98;;;;;;;8.07;80.41;97636.88;4948033;29;20192;-65
2022/04/11 01:04:24;;;;;;;1.10;1.10;;;;;;;8.10;78.86;97644.34;4946610;28;20706;-64
2022/04/11 01:06:58;;;;;;;0.93;0.93;;;;;;;8.18;78.57;97649.81;4936663;29;20193;-66
2022/04/11 01:09:25;;;;;;;1.00;1.00;;;;;;;8.24;78.97;97658.88;4939301;29;21029;-64
2022/04/11 01:11:51;;;;;;;0.90;0.90;;;;;;;8.26;76.34;97657.00;4946269;29;20220;-65
2022/04/11 01:14:17;;;;;;;1.00;1.00;;;;;;;8.21;77.47;97644.44;4948233;29;20194;-64
2022/04/11 01:16:50;;;;;;;1.10;1.10;;;;;;;8.14;77.46;97655.25;4948160;29;20299;-64
2022/04/11 01:19:17;;;;;;;0.98;0.98;;;;;;;8.06;78.28;97668.72;4948145;29;20355;-66
2022/04/11 01:21:51;;;;;;;1.10;1.10;;;;;;;8.09;78.70;97668.47;4948220;29;20189;-66
2022/04/11 01:24:21;;;;;;;1.10;1.10;;;;;;;8.11;78.58;97655.50;4948201;29;20192;-66
2022/04/11 01:26:47;;;;;;;1.08;1.08;;;;;;;8.07;77.85;97664.38;4940110;29;20574;-67
2022/04/11 01:29:13;;;;;;;1.00;1.00;;;;;;;8.00;79.18;97669.13;4938143;29;20197;-66
2022/04/11 01:31:38;;;;;;;0.90;0.90;;;;;;;8.06;78.87;97679.00;4941333;29;20185;-66
2022/04/11 01:34:04;;;;;;;1.10;1.10;;;;;;;8.03;79.36;97681.78;4948147;29;20227;-65
2022/04/11 01:36:30;;;;;;;1.23;1.23;;;;;;;8.05;79.35;97682.50;4948175;28;20181;-65
2022/04/11 01:38:55;;;;;;;1.30;1.23;;;;;;;8.03;80.68;97688.72;4951063;29;20733;-65
2022/04/11 01:41:20;;;;;;;1.38;1.30;;;;;;;8.00;80.26;97694.06;4951135;29;20185;-65
2022/04/11 01:43:47;;;;;;;1.10;0.98;;;;;;;7.87;79.52;97688.94;4951375;29;20211;-65
2022/04/11 01:46:12;;;;;;;1.30;1.30;;;;;;;7.88;82.68;97700.91;4951659;29;20185;-65
2022/04/11 01:48:38;;;;;;;1.38;1.27;;;;;;;7.91;83.18;97698.09;4939310;29;20597;-65
2022/04/11 01:51:04;;;;;;;2.42;1.10;;;;;;;7.98;81.54;97717.34;4941392;29;20193;-65
2022/04/11 01:53:29;;;;;;;1.13;1.13;;;;;;;7.99;80.30;97711.25;4947836;29;20192;-65
2022/04/11 01:55:54;;;;;;;1.48;1.17;;;;;;;7.92;82.38;97712.63;4951365;29;20612;-65
2022/04/11 01:58:20;;;;;;;1.23;1.23;;;;;;;8.00;81.95;97707.78;4951272;29;20738;-65
2022/04/11 02:00:46;;;;;;;1.20;1.20;;;;;;;8.01;82.67;97700.84;4951224;29;20613;-65
2022/04/11 02:03:11;;;;;;;1.08;1.08;;;;;;;8.04;80.68;97723.84;4933474;29;20208;-64
2022/04/11 02:05:38;;;;;;;1.20;1.20;;;;;;;7.85;82.36;97720.84;4951093;29;20196;-65
2022/04/11 02:08:06;;;;;;;1.13;1.13;;;;;;;7.84;83.38;97739.81;4947093;29;20968;-65
2022/04/11 02:10:31;;;;;;;1.50;1.40;;;;;;;7.84;83.55;97729.53;4940230;29;20188;-67
2022/04/11 02:12:58;;;;;;;1.17;1.17;;;;;;;7.80;83.09;97728.91;4941572;29;20635;-65
2022/04/11 02:15:23;;;;;;;1.58;1.30;;;;;;;7.70;83.41;97748.47;4949921;29;20635;-66
2022/04/11 02:17:52;;;;;;;1.35;1.30;;;;;;;7.59;83.99;97739.84;4950637;29;20192;-66
2022/04/11 02:20:17;;;;;;;1.38;1.30;;;;;;;7.49;84.25;97746.53;4950702;29;20577;-65
2022/04/11 02:22:47;;;;;;;1.95;1.40;;;;;;;7.55;84.30;97759.81;4950765;29;20185;-65
2022/04/11 02:25:14;;;;;;;1.30;1.10;;;;;;;7.53;85.29;97773.72;4950887;29;20188;-65
2022/04/11 02:27:39;;;;;;;1.60;1.50;;;;;;;7.55;86.31;97785.56;4950548;29;20228;-66
2022/04/11 02:30:06;;;;;;;1.10;1.10;;;;;;;7.44;86.04;97775.16;4941892;29;20280;-65
2022/04/11 02:32:32;;;;;;;1.30;1.30;;;;;;;7.46;86.66;97791.31;4940460;29;20264;-67
2022/04/11 02:34:57;;;;;;;1.60;1.38;;;;;;;7.49;86.67;97782.56;4944522;29;20687;-65
2022/04/11 02:37:23;;;;;;;1.55;1.48;;;;;;;7.56;87.28;97789.78;4950517;29;21374;-65
2022/04/11 02:39:48;;;;;;;1.55;1.55;;;;;;;7.66;86.21;97802.84;4950258;29;20224;-65
2022/04/11 02:42:24;;;;;;;1.25;1.25;;;;;;;7.66;84.75;97814.00;4950708;29;20196;-65
2022/04/11 02:44:50;;;;;;;1.50;1.50;;;;;;;7.54;85.77;97804.50;4950015;29;20180;-65
2022/04/11 02:47:16;;;;;;;1.35;1.35;;;;;;;7.50;86.08;97823.66;4950153;29;20200;-65
2022/04/11 02:49:42;;;;;;;1.60;1.50;;;;;;;7.47;87.00;97818.69;4947320;28;20189;-66
2022/04/11 02:52:07;;;;;;;1.50;1.50;;;;;;;7.51;88.00;97825.28;4938500;29;20224;-65
2022/04/11 02:54:33;;;;;;;4.68;1.58;;;;;;;7.57;87.06;97827.47;4940403;29;20499;-65
2022/04/11 02:56:58;;;;;;;1.67;1.58;;;;;;;7.56;87.22;97836.09;4947695;29;20255;-65
2022/04/11 02:59:24;;;;;;;1.80;1.70;;;;;;;7.62;86.63;97845.16;4950162;29;20300;-65
2022/04/11 03:01:49;;;;;;;1.77;1.70;;;;;;;7.63;86.60;97849.41;4950062;29;20193;-65
2022/04/11 03:04:16;;;;;;;1.73;1.42;;;;;;;7.54;88.53;97855.16;4950089;28;20311;-65
2022/04/11 03:06:42;;;;;;;1.70;1.60;;;;;;;7.51;88.39;97857.94;4932545;29;20753;-65
2022/04/11 03:09:08;;;;;;;1.80;1.70;;;;;;;7.52;87.88;97873.25;4949863;29;20276;-65
2022/04/11 03:11:34;;;;;;;1.70;1.60;;;;;;;7.52;90.14;97877.59;4943853;29;20193;-65
2022/04/11 03:14:00;;;;;;;1.58;1.48;;;;;;;7.39;88.52;97882.69;4938880;29;20192;-65
2022/04/11 03:16:25;;;;;;;1.48;1.45;;;;;;;7.41;88.60;97870.56;4941246;29;20346;-67
2022/04/11 03:18:50;;;;;;;1.23;1.23;;;;;;;7.45;87.58;97873.78;4949571;29;20287;-66
2022/04/11 03:21:16;;;;;;;1.50;1.40;;;;;;;7.44;88.57;97878.09;4949394;29;20340;-67
2022/04/11 03:23:41;;;;;;;1.40;1.40;;;;;;;7.40;87.31;97879.19;4949591;29;20193;-65
2022/04/11 03:26:07;;;;;;;1.30;1.20;;;;;;;7.31;87.59;97892.66;4949040;29;20196;-65
2022/04/11 03:28:32;;;;;;;1.60;1.58;;;;;;;7.35;88.03;97890.72;4949530;29;20189;-65
2022/04/11 03:30:59;;;;;;;1.70;1.60;;;;;;;7.29;89.94;97891.94;4949376;29;20191;-65
2022/04/11 03:33:24;;;;;;;1.20;1.20;;;;;;;7.18;88.53;97889.19;4939495;29;20207;-65
2022/04/11 03:35:50;;;;;;;1.50;1.50;;;;;;;7.19;90.30;97903.75;4939568;29;20189;-66
2022/04/11 03:38:16;;;;;;;1.50;1.50;;;;;;;7.09;91.36;97918.09;4944152;29;20832;-65
2022/04/11 03:40:41;;;;;;;1.92;1.52;;;;;;;7.05;91.86;97926.09;4949089;29;20197;-65
2022/04/11 03:43:06;;;;;;;1.98;1.60;;;;;;;7.08;93.60;97936.19;4949262;29;20244;-65
2022/04/11 03:45:32;;;;;;;1.35;1.33;;;;;;;7.08;94.57;97934.47;4949445;29;20273;-65
2022/04/11 03:47:57;;;;;;;1.45;1.40;;;;;;;7.14;94.64;97946.94;4949114;29;20670;-65
2022/04/11 03:50:23;;;;;;;1.80;1.70;;;;;;;7.14;94.55;97953.81;4949368;29;20192;-65
2022/04/11 03:52:49;;;;;;;3.67;1.60;;;;;;;7.23;96.09;97954.06;4947441;29;20835;-64
2022/04/11 03:55:14;;;;;;;1.60;1.50;;;;;;;7.26;94.49;97969.31;4937762;29;20189;-67
2022/04/11 03:57:40;;;;;;;2.63;1.80;;;;;;;7.20;94.35;97974.84;4939769;29;20682;-65
2022/04/11 04:00:06;;;;;;;5.28;2.20;;;;;;;7.25;96.26;97984.84;4945988;28;20263;-66
2022/04/11 04:02:31;;;;;;;1.70;1.60;;;;;;;7.36;96.08;97983.28;4949182;28;20197;-65
2022/04/11 04:04:57;;;;;;;1.90;1.80;;;;;;;7.40;95.45;97989.06;4948733;29;20216;-66
2022/04/11 04:07:22;;;;;;;1.75;1.65;;;;;;;7.42;92.24;97997.50;4949098;29;20276;-66
2022/04/11 04:09:48;;;;;;;1.70;1.60;;;;;;;7.40;91.44;97991.63;4928012;29;20757;-65
2022/04/11 04:12:17;;;;;;;3.42;1.90;;;;;;;7.33;94.30;97986.03;4948656;29;20272;-65
2022/04/11 04:14:43;;;;;;;1.42;1.42;;;;;;;7.46;93.45;97992.06;4942756;29;20710;-67
2022/04/11 04:17:09;;;;;;;1.92;1.83;;;;;;;7.55;91.93;97995.81;4938139;29;20181;-65
2022/04/11 04:19:34;;;;;;;2.50;1.67;;;;;;;7.55;92.88;97998.38;4940134;29;20244;-65
2022/04/11 04:21:59;;;;;;;1.60;1.60;;;;;;;7.56;95.79;98000.84;4948689;29;20187;-65
2022/04/11 04:24:25;;;;;;;2.67;2.47;;;;;;;7.46;95.54;97994.63;4948700;29;20185;-65
2022/04/11 04:26:50;;;;;;;2.70;2.50;;;;;;;7.43;95.37;98004.28;4948707;29;20193;-65
2022/04/11 04:29:16;;;;;;;1.83;1.73;;;;;;;7.59;95.75;98008.41;4948522;29;20181;-65
2022/04/11 04:31:43;;;;;;;1.50;1.40;;;;;;;7.71;91.29;98006.78;4948575;29;20642;-67
2022/04/11 04:34:08;;;;;;;1.73;1.63;;;;;;;7.77;93.51;98017.53;4948460;29;20192;-65
2022/04/11 04:36:34;;;;;;;1.65;1.55;;;;;;;7.79;89.79;98013.09;4938437;29;20223;-66
2022/04/11 04:39:00;;;;;;;1.80;1.70;;;;;;;7.83;91.15;98022.28;4938245;29;20268;-66
2022/04/11 04:41:26;;;;;;;1.75;1.65;;;;;;;7.89;92.77;98021.06;4943901;29;20177;-66
2022/04/11 04:43:51;;;;;;;1.95;1.80;;;;;;;8.00;90.64;98029.78;4948470;29;20803;-65
2022/04/11 04:46:17;;;;;;;1.33;1.33;;;;;;;7.94;86.83;98032.75;4948806;29;20251;-65
2022/04/11 04:48:42;;;;;;;1.00;1.00;;;;;;;7.88;88.21;98040.88;4948263;29;20188;-65
2022/04/11 04:51:08;;;;;;;2.05;1.13;;;;;;;7.90;90.34;98048.47;4948467;29;20324;-65
2022/04/11 04:53:34;;;;;;;1.40;1.30;;;;;;;7.88;88.71;98043.44;4948457;29;20196;-66
2022/04/11 04:55:59;;;;;;;0.80;0.80;;;;;;;7.73;87.46;98051.28;4946093;29;20304;-65
2022/04/11 04:58:25;;;;;;;0.80;0.80;;;;;;;7.61;89.96;98046.91;4937182;29;20674;-66
2022/04/11 05:00:50;;;;;;;0.90;0.90;;;;;;;7.56;91.68;98054.06;4938993;29;20189;-65
2022/04/11 05:03:16;;;;;;;0.60;0.60;;;;;;;7.50;89.34;98052.72;4946131;28;20296;-65
2022/04/11 05:05:41;;;;;;;0.70;0.70;;;;;;;7.48;91.32;98056.31;4948322;29;20185;-65
2022/04/11 05:08:08;;;;;;;0.93;0.93;;;;;;;7.45;90.69;98064.25;4948567;29;20659;-65
2022/04/11 05:10:33;;;;;;;0.80;0.80;;;;;;;7.49;91.88;98060.53;4948872;29;20181;-66
2022/04/11 05:12:59;;;;;;;0.60;0.60;;;;;;;7.50;90.81;98060.44;4950182;28;20196;-65
2022/04/11 05:15:24;;;;;;;0.60;0.60;;;;;;;7.48;89.37;98064.88;4952248;29;20196;-65
2022/04/11 05:17:50;;;;;;;0.52;0.52;;;;;;;7.55;89.87;98067.88;4945870;29;20608;-65
2022/04/11 05:20:15;;;;;;;0.68;0.60;;;;;;;7.56;88.13;98065.22;4941195;29;20649;-65
2022/04/11 05:22:41;;;;;;;0.65;0.65;;;;;;;7.50;86.53;98070.75;4943603;29;20185;-65
2022/04/11 05:25:07;;;;;;;0.82;0.82;;;;;;;7.49;87.93;98076.81;4951711;29;20694;-66
2022/04/11 05:27:32;;;;;;;0.90;0.90;;;;;;;7.44;91.11;98067.72;4951674;29;20189;-65
2022/04/11 05:29:58;;;;;;;0.80;0.80;;;;;;;7.57;88.09;98073.78;4951475;29;20677;-65
2022/04/11 05:32:23;;;;;;;0.52;0.52;;;;;;;7.58;85.08;98076.22;4951545;29;20188;-66
2022/04/11 05:34:49;;;;;;;0.60;0.60;;;;;;;7.59;85.21;98075.34;4951503;29;20192;-65
2022/04/11 05:37:14;;;;;;;2.45;1.42;;;;;;;7.58;87.68;98076.22;4951593;29;20528;-65
2022/04/11 05:39:40;;;;;;;0.95;0.95;;;;;;;7.54;83.84;98059.34;4941665;29;20383;-65
2022/04/11 05:42:06;;;;;;;0.60;0.60;;;;;;;7.79;84.15;98079.22;4941397;29;20195;-67
2022/04/11 05:44:32;;;;;;;0.82;0.82;;;;;;;7.92;85.32;98075.78;4946488;29;20181;-65
2022/04/11 05:46:57;;;;;;;0.65;0.65;;;;;;;7.90;81.23;98058.78;4951369;29;21365;-66
2022/04/11 05:49:23;;;;;;;0.70;0.70;;;;;;;7.79;81.60;98067.19;4924511;29;20244;-65
2022/04/11 05:51:49;;;;;;;0.60;0.60;;;;;;;7.87;82.32;98069.28;4951508;29;20189;-65
2022/04/11 05:54:15;;;;;;;0.80;0.80;;;;;;;7.89;82.46;98060.53;4951234;29;20574;-65
2022/04/11 05:56:41;;;;;;;0.80;0.80;;;;;;;7.86;82.54;98053.00;4951242;29;20181;-65
2022/04/11 05:59:08;;;;;;;1.52;1.38;;;;;;;7.98;83.05;98064.28;4948682;29;20208;-65
2022/04/11 06:01:35;;;;;;;1.00;1.00;;;;;;;8.09;80.17;98054.13;4940162;29;20204;-67
2022/04/11 06:04:00;;;;;;;2.00;0.80;;;;;;;8.18;80.50;98054.34;4941822;28;20681;-65
2022/04/11 06:06:25;;;;;;;0.85;0.85;;;;;;;8.25;77.98;98052.22;4948580;29;20246;-65
2022/04/11 06:08:51;;;;;;;0.82;0.82;;;;;;;8.33;76.96;98055.16;4951173;29;20249;-66
2022/04/11 06:11:16;;;;;;;1.45;0.80;;;;;;;8.36;74.42;98054.94;4950974;29;20185;-65
2022/04/11 06:13:45;;;;;;;0.80;0.80;;;;;;;8.43;74.57;98072.47;4951140;29;20189;-65
2022/04/11 06:16:11;;;;;;;0.70;0.70;;;;;;;8.45;74.25;98062.88;4951246;29;20200;-65
2022/04/11 06:18:36;;;;;;;0.70;0.70;;;;;;;8.41;73.32;98063.19;4950712;29;20201;-65
2022/04/11 06:21:02;;;;;;;0.60;0.60;;;;;;;8.42;72.11;98064.84;4944171;29;20734;-66
2022/04/11 06:23:27;;;;;;;0.60;0.60;;;;;;;8.49;72.15;98064.34;4939812;28;20209;-64
2022/04/11 06:25:53;;;;;;;0.63;0.63;;;;;;;8.65;71.79;98070.16;4942724;29;20181;-65
2022/04/11 06:28:18;;;;;;;0.68;0.68;;;;;;;8.72;69.48;98073.13;4950751;29;20191;-65
2022/04/11 06:30:43;;;;;;;0.70;0.70;;;;;;;8.84;69.66;98074.88;4950813;29;20651;-65
2022/04/11 06:33:09;;;;;;;0.60;0.60;;;;;;;8.96;69.14;98077.47;4950588;29;20192;-65
2022/04/11 06:35:34;;;;;;;0.80;0.80;;;;;;;9.12;68.41;98097.91;4950820;29;20193;-65
2022/04/11 06:38:00;;;;;;;1.00;1.00;;;;;;;9.29;66.72;98087.28;4950560;29;20634;-64
2022/04/11 06:40:25;;;;;;;0.77;0.77;;;;;;;9.45;66.96;98098.22;4950591;29;20691;-64
2022/04/11 06:42:51;;;;;;;0.40;0.40;;;;;;;9.50;65.91;98096.13;4940131;29;20200;-65
2022/04/11 06:45:16;;;;;;;0.50;0.50;;;;;;;9.64;64.78;98104.59;4940455;29;20185;-66
2022/04/11 06:47:47;;;;;;;0.60;0.60;;;;;;;9.65;65.14;98111.41;4945426;29;20185;-66
2022/04/11 06:50:14;;;;;;;1.95;0.55;;;;;;;9.65;63.99;98111.41;4950566;29;20185;-66
2022/04/11 06:52:39;;;;;;;0.50;0.50;;;;;;;9.62;63.86;98121.94;4950005;29;20671;-66
2022/04/11 06:55:05;;;;;;;0.85;0.80;;;;;;;9.51;65.34;98142.53;4950142;29;20200;-66
2022/04/11 06:57:30;;;;;;;0.70;0.70;;;;;;;9.42;65.10;98142.31;4949896;29;20192;-66
2022/04/11 06:59:56;;;;;;;0.60;0.60;;;;;;;9.23;64.94;98149.66;4949941;29;20235;-66
2022/04/11 07:02:21;;;;;;;0.90;0.90;;;;;;;9.19;66.10;98145.59;4947294;29;20177;-64
2022/04/11 07:04:47;;;;;;;0.80;0.80;;;;;;;9.26;66.37;98150.25;4938665;28;20220;-66
2022/04/11 07:07:12;;;;;;;0.80;0.80;;;;;;;9.19;65.49;98149.03;4940840;29;20691;-66
2022/04/11 07:09:38;;;;;;;0.90;0.90;;;;;;;9.32;66.33;98146.47;4948375;29;20181;-64
2022/04/11 07:12:04;;;;;;;0.80;0.80;;;;;;;9.36;65.77;98178.88;4949643;29;20189;-66
2022/04/11 07:14:29;;;;;;;2.03;1.00;;;;;;;9.18;67.06;98178.34;4949861;29;20181;-66
2022/04/11 07:16:54;;;;;;;1.23;1.23;;;;;;;9.21;67.42;98172.97;4949760;29;20288;-66
2022/04/11 07:19:20;;;;;;;1.20;1.10;;;;;;;9.35;66.26;98188.38;4949712;29;20201;-66
2022/04/11 07:21:46;;;;;;;1.10;1.10;;;;;;;9.48;67.38;98196.09;4949639;29;20275;-65
2022/04/11 07:24:12;;;;;;;1.50;1.40;;;;;;;9.46;65.69;98201.41;4942972;29;20208;-66
2022/04/11 07:26:40;;;;;;;1.52;1.42;;;;;;;9.52;65.59;98198.41;4939341;29;20259;-66
2022/04/11 07:29:06;;;;;;;1.42;1.33;;;;;;;9.57;65.55;98214.44;4942501;29;20181;-66
2022/04/11 07:31:31;;;;;;;1.55;1.45;;;;;;;9.57;66.30;98196.34;4949378;29;20191;-64
2022/04/11 07:33:57;;;;;;;1.83;1.30;;;;;;;9.64;65.54;98210.50;4949524;29;20239;-66
2022/04/11 07:36:22;;;;;;;2.15;1.95;;;;;;;9.63;67.00;98212.22;4948889;28;20185;-66
2022/04/11 07:38:47;;;;;;;1.85;1.75;;;;;;;9.75;66.67;98219.16;4949366;29;20201;-66
2022/04/11 07:41:13;;;;;;;1.77;1.67;;;;;;;9.84;67.60;98215.09;4949089;29;20196;-66
2022/04/11 07:43:38;;;;;;;1.52;1.42;;;;;;;9.83;66.92;98208.28;4949166;29;20194;-66
2022/04/11 07:46:05;;;;;;;1.85;1.75;;;;;;;9.95;65.28;98225.53;4938258;29;20648;-66
2022/04/11 07:48:32;;;;;;;1.52;1.42;;;;;;;9.85;65.56;98229.69;4939531;29;20185;-65
2022/04/11 07:50:58;;;;;;;1.67;1.58;;;;;;;9.80;65.65;98213.69;4927527;29;20675;-65
2022/04/11 07:53:23;;;;;;;1.85;1.75;;;;;;;9.81;65.01;98236.81;4949096;29;20184;-64
2022/04/11 07:55:48;;;;;;;2.17;2.00;;;;;;;9.83;65.88;98236.72;4949074;29;20489;-65
2022/04/11 07:58:15;;;;;;;2.13;2.00;;;;;;;9.82;66.31;98238.47;4949285;29;20582;-66
2022/04/11 08:00:41;;;;;;;2.10;2.00;;;;;;;9.85;66.46;98227.94;4949214;29;20188;-65
2022/04/11 08:03:07;;;;;;;2.58;1.70;;;;;;;9.88;64.41;98226.91;4948836;28;20263;-64
2022/04/11 08:05:32;;;;;;;1.90;1.80;;;;;;;10.00;63.47;98233.81;4945702;29;20197;-66
2022/04/11 08:07:58;;;;;;;2.60;1.63;;;;;;;9.97;64.40;98241.75;4937848;29;20185;-65
2022/04/11 08:10:23;;;;;;;2.05;1.95;;;;;;;10.07;65.27;98247.97;4939858;29;20586;-66
2022/04/11 08:12:59;;;;;;;3.00;1.83;;;;;;;10.13;63.71;98249.34;4947164;29;20272;-66
2022/04/11 08:15:26;;;;;;;2.88;1.88;;;;;;;10.21;64.57;98250.47;4949103;29;20251;-66
2022/04/11 08:17:54;;;;;;;3.13;1.92;;;;;;;10.25;63.35;98273.41;4948703;29;20188;-66
2022/04/11 08:20:19;;;;;;;2.60;1.63;;;;;;;10.22;63.81;98257.28;4948632;29;20204;-64
2022/04/11 08:22:45;;;;;;;1.73;1.63;;;;;;;10.28;62.73;98267.19;4948782;29;20188;-66
2022/04/11 08:25:11;;;;;;;2.63;1.73;;;;;;;10.28;62.54;98259.44;4948250;29;20646;-66
2022/04/11 08:27:37;;;;;;;2.08;1.88;;;;;;;10.22;63.50;98263.25;4940151;29;20200;-65
2022/04/11 08:30:04;;;;;;;3.65;1.98;;;;;;;10.24;62.91;98265.75;4938502;29;20306;-66
2022/04/11 08:32:46;;;;;;;2.00;1.90;;;;;;;10.37;63.46;98274.28;4942226;29;20185;-66
2022/04/11 08:35:13;;;;;;;1.83;1.73;;;;;;;10.52;62.38;98265.47;4948597;29;20188;-66
2022/04/11 08:37:40;;;;;;;1.75;1.50;;;;;;;10.66;62.25;98283.44;4948542;29;20611;-65
2022/04/11 08:40:16;;;;;;;1.92;1.52;;;;;;;10.75;60.43;98273.25;4948361;29;20204;-66
2022/04/11 08:42:44;;;;;;;2.17;1.95;;;;;;;10.75;59.94;98287.97;4948463;29;20276;-66
2022/04/11 08:45:13;;;;;;;2.75;2.28;;;;;;;10.78;60.49;98277.38;4948570;29;20757;-66
2022/04/11 08:47:39;;;;;;;1.83;1.48;;;;;;;10.83;60.61;98285.63;4948782;28;20719;-64
2022/04/11 08:50:05;;;;;;;1.95;1.77;;;;;;;10.92;60.76;98290.16;4941363;29;20184;-66
2022/04/11 08:52:33;;;;;;;3.05;1.50;;;;;;;10.99;60.92;98292.22;4943180;29;20188;-66
2022/04/11 08:54:59;;;;;;;1.85;1.75;;;;;;;10.97;58.53;98285.50;4950802;29;20220;-66
2022/04/11 08:57:24;;;;;;;2.05;1.70;;;;;;;11.02;58.69;98299.75;4952177;29;20252;-66
2022/04/11 08:59:50;;;;;;;2.30;2.10;;;;;;;11.06;59.72;98297.75;4952379;29;20315;-66
2022/04/11 09:02:15;;;;;;;1.90;1.80;;;;;;;11.03;58.43;98295.41;4951857;29;20688;-66
2022/04/11 09:04:51;;;;;;;1.80;1.70;;;;;;;10.97;57.50;98308.78;4951942;28;20267;-66
2022/04/11 09:07:17;;;;;;;2.05;1.95;;;;;;;10.94;57.71;98304.66;4952102;29;20219;-66
2022/04/11 09:09:43;;;;;;;3.15;2.65;;;;;;;10.91;57.51;98304.06;4944294;29;20208;-66
2022/04/11 09:12:16;;;;;;;2.75;2.38;;;;;;;10.77;58.83;98296.44;4941574;29;20630;-66
2022/04/11 09:14:43;;;;;;;3.05;2.75;;;;;;;10.83;58.69;98296.00;4945788;29;20248;-66
2022/04/11 09:17:11;;;;;;;3.40;2.80;;;;;;;10.83;58.28;98301.16;4951901;29;20200;-66
2022/04/11 09:19:38;;;;;;;3.22;2.60;;;;;;;10.78;57.49;98306.69;4951887;29;20694;-65
2022/04/11 09:22:05;;;;;;;4.68;3.80;;;;;;;10.80;57.60;98304.00;4952248;29;20239;-65
2022/04/11 09:24:31;;;;;;;1.60;1.50;;;;;;;10.79;57.25;98304.94;4951848;29;20193;-66
2022/04/11 09:26:57;;;;;;;3.28;2.38;;;;;;;10.63;56.63;98309.53;4951713;29;20825;-65
2022/04/11 09:29:24;;;;;;;2.67;2.47;;;;;;;10.53;56.99;98322.28;4951045;29;20213;-65
2022/04/11 09:31:50;;;;;;;2.92;2.67;;;;;;;10.52;56.97;98322.38;4922860;29;20263;-65
2022/04/11 09:34:26;;;;;;;3.28;3.05;;;;;;;10.65;57.79;98336.13;4942420;29;20184;-66
2022/04/11 09:36:53;;;;;;;3.35;3.15;;;;;;;10.70;56.19;98339.22;4948916;29;20184;-65
2022/04/11 09:39:24;;;;;;;2.75;2.55;;;;;;;10.73;56.48;98341.59;4951522;29;20212;-65
2022/04/11 09:41:51;;;;;;;2.58;2.30;;;;;;;10.69;55.74;98329.78;4934193;29;20181;-66
2022/04/11 09:44:29;;;;;;;3.38;2.60;;;;;;;10.84;55.88;98339.06;4951424;29;20193;-65
2022/04/11 09:46:58;;;;;;;8.55;4.10;;;;;;;11.03;56.41;98345.41;4934032;29;20619;-66
2022/04/11 09:49:24;;;;;;;3.53;3.00;;;;;;;10.97;55.89;98351.03;4951352;29;20264;-66
2022/04/11 09:52:08;;;;;;;2.90;2.70;;;;;;;10.99;56.20;98364.72;4943773;29;20303;-66
2022/04/11 09:54:52;;;;;;;3.42;3.00;;;;;;;10.96;55.19;98366.66;4940828;29;20358;-65
2022/04/11 09:57:18;;;;;;;4.15;2.72;;;;;;;10.97;55.21;98379.50;4946662;29;20627;-66
2022/04/11 09:59:45;;;;;;;2.80;2.60;;;;;;;11.04;54.24;98372.13;4950664;28;20237;-66
2022/04/11 10:02:17;;;;;;;3.67;2.67;;;;;;;11.08;54.97;98378.75;4951149;29;20279;-66
2022/04/11 10:04:43;;;;;;;5.00;2.80;;;;;;;11.24;55.22;98389.66;4950961;28;20220;-65
2022/04/11 10:07:12;;;;;;;4.15;2.60;;;;;;;11.36;56.09;98384.44;4933543;29;20196;-67
2022/04/11 10:09:41;;;;;;;4.50;3.25;;;;;;;11.49;54.42;98392.97;4950697;29;20255;-67
2022/04/11 10:12:08;;;;;;;4.57;3.45;;;;;;;11.62;53.84;98395.53;4947123;29;20223;-65
2022/04/11 10:14:34;;;;;;;2.92;2.50;;;;;;;11.66;51.98;98391.75;4939861;29;20690;-67
2022/04/11 10:17:01;;;;;;;4.05;2.80;;;;;;;11.52;52.32;98399.69;4941944;29;20223;-65
2022/04/11 10:19:29;;;;;;;2.95;2.75;;;;;;;11.35;51.24;98403.50;4949540;29;20770;-67
2022/04/11 10:22:02;;;;;;;3.75;2.40;;;;;;;11.30;51.57;98410.78;4950782;29;20192;-67
2022/04/11 10:24:33;;;;;;;6.50;3.67;;;;;;;11.22;52.14;98404.50;4950661;29;20192;-66
2022/04/11 10:27:20;;;;;;;3.03;2.72;;;;;;;11.20;51.97;98403.78;4950114;29;20192;-66
2022/04/11 10:29:48;;;;;;;2.88;2.50;;;;;;;11.26;52.30;98417.09;4950877;29;20291;-66
2022/04/11 10:32:16;;;;;;;2.58;2.40;;;;;;;11.38;51.24;98407.66;4950565;29;20671;-66
2022/04/11 10:34:52;;;;;;;3.08;2.83;;;;;;;11.45;51.22;98411.44;4939330;29;20900;-66
2022/04/11 10:37:20;;;;;;;3.10;2.90;;;;;;;11.68;51.11;98405.47;4941163;29;20183;-66
2022/04/11 10:39:46;;;;;;;4.20;3.80;;;;;;;11.71;50.73;98406.06;4947125;29;20227;-65
2022/04/11 10:42:17;;;;;;;2.95;2.75;;;;;;;11.72;50.45;98406.91;4927295;29;20192;-66
2022/04/11 10:44:45;;;;;;;3.97;3.55;;;;;;;11.88;50.66;98397.03;4950419;29;20704;-66
2022/04/11 10:47:11;;;;;;;22.52;15.00;;;;;;;11.99;50.07;98404.84;4950495;29;20189;-66
2022/04/11 10:49:45;;;;;;;13.80;9.02;;;;;;;12.09;50.86;98400.63;4950357;29;20188;-66
2022/04/11 10:52:32;;;;;;;6.78;4.78;;;;;;;12.20;49.78;98403.25;4950331;29;20188;-66
2022/04/11 10:55:15;;;;;;;5.18;3.25;;;;;;;12.13;49.20;98402.06;4942918;29;20259;-65
2022/04/11 10:57:55;;;;;;;4.13;2.95;;;;;;;12.13;49.59;98397.69;4939737;29;20749;-65
2022/04/11 11:00:25;;;;;;;23.13;15.02;;;;;;;12.14;49.05;98403.72;4944131;29;20713;-65
2022/04/11 11:02:56;;;;;;;46.00;29.65;;;;;;;12.14;49.35;98407.13;4949941;28;20710;-65
2022/04/11 11:05:27;;;;;;;4.03;3.65;;;;;;;12.08;47.61;98399.00;4949924;29;20228;-66
2022/04/11 11:08:13;;;;;;;4.22;3.45;;;;;;;12.06;48.89;98396.50;4950161;29;20211;-66
2022/04/11 11:10:57;;;;;;;8.75;5.50;;;;;;;12.14;48.68;98414.91;4938583;28;20205;-65
2022/04/11 11:13:36;;;;;;;2.85;2.55;;;;;;;12.11;48.90;98404.78;4949849;29;20276;-65
2022/04/11 11:16:07;;;;;;;2.65;2.20;;;;;;;12.43;47.86;98389.38;4942960;29;20216;-65
2022/04/11 11:18:51;;;;;;;2.50;2.30;;;;;;;12.51;48.35;98389.59;4939234;29;20191;-66
2022/04/11 11:21:22;;;;;;;2.92;2.72;;;;;;;12.74;47.85;98405.09;4943944;29;20189;-66
2022/04/11 11:24:12;;;;;;;2.08;1.98;;;;;;;12.61;44.77;98387.97;4949397;29;20681;-65
2022/04/11 11:26:52;;;;;;;2.30;2.20;;;;;;;12.71;45.78;98389.72;4949966;29;20177;-66
2022/04/11 11:29:19;;;;;;;1.98;1.85;;;;;;;12.69;44.42;98383.00;4949802;29;20184;-65
2022/04/11 11:31:50;;;;;;;2.38;2.08;;;;;;;12.75;43.65;98377.31;4949496;29;20204;-65
2022/04/11 11:34:21;;;;;;;2.40;2.20;;;;;;;12.87;42.80;98371.19;4949394;29;20255;-65
2022/04/11 11:36:48;;;;;;;2.63;2.45;;;;;;;13.15;43.61;98383.69;4943440;29;20177;-66
2022/04/11 11:39:22;;;;;;;2.67;2.47;;;;;;;13.57;42.22;98382.84;4938938;29;20248;-67